• Join FlightAware (Why Join?)
  • Login
  • US Flag 
10:53AM EDT


 

Airport Tracker/Info


-or-


 

Live Flight TrackerFlight Track Log ✈ N3066W ✈ 21-Jun-2013 ✈ KBUR - KCCR

Flight Track Log - Related Links

Times and Time Zones

All times are in EDT time to prevent confusion due to time zone crossing. See the N3066W flight status page for this flight to view local times or setup timezone preferences in your user account.

Time Position Orientation Groundspeed Altitude Reporting Facility
EDT Latitude Longitude Course Direction KTS MPH feet Rate Location/Type
04:35PM 34.2000 -118.3333 202° Southwest 118 136 1,600  Level Southern California TRACON
04:36PM 34.1667 -118.3500 202° Southwest 129 148 2,900 1,260 Climbing Southern California TRACON
04:37PM 34.1500 -118.3667 220° Southwest 131 151 4,200 1,200 Climbing Southern California TRACON
04:38PM 34.1383 -118.4186 255° West 141 162 5,500 1,140 Climbing Los Angeles Center
04:39PM 34.1733 -118.4372 336° Northwest 140 161 6,700 1,200 Climbing Los Angeles Center
04:40PM 34.2069 -118.4650 326° Northwest 147 169 8,100 1,200 Climbing Los Angeles Center
04:41PM 34.2450 -118.4833 338° Northwest 149 171 9,200 960 Climbing Los Angeles Center
04:42PM 34.2853 -118.4989 342° North 155 178 10,200 1,140 Climbing Los Angeles Center
04:43PM 34.3278 -118.5383 323° Northwest 159 183 11,600 900 Climbing Los Angeles Center
04:44PM 34.3689 -118.5639 333° Northwest 167 192 12,100 180 Climbing Los Angeles Center
04:45PM 34.4189 -118.5989 330° Northwest 206 237 12,000 720 Descending Los Angeles Center
04:46PM 34.4639 -118.6306 330° Northwest 175 201 13,700 960 Climbing Los Angeles Center
04:47PM 34.5036 -118.6558 332° Northwest 165 190 14,000 180 Climbing Los Angeles Center
04:48PM 34.5519 -118.6886 331° Northwest 197 227 14,100 780 Climbing Los Angeles Center
04:49PM 34.6061 -118.7247 331° Northwest 171 197 15,700 960 Climbing Los Angeles Center
04:50PM 34.6464 -118.7567 327° Northwest 178 205 16,100 420 Climbing Los Angeles Center
04:51PM 34.6961 -118.7881 333° Northwest 205 236 16,600 660 Climbing Los Angeles Center
04:52PM 34.7372 -118.8172 330° Northwest 173 199 17,500 540 Climbing Los Angeles Center
04:53PM 34.7806 -118.8492 329° Northwest 182 209 17,800 240 Climbing Los Angeles Center
04:54PM 34.8394 -118.8842 334° Northwest 197 227 18,000 60 Climbing Los Angeles Center
04:55PM 34.8914 -118.9181 332° Northwest 210 242 18,000  Level Los Angeles Center
04:56PM 34.9425 -118.9469 335° Northwest 212 244 18,000  Level Los Angeles Center
04:57PM 34.9972 -118.9794 334° Northwest 217 250 18,000  Level Los Angeles Center
04:58PM 35.0508 -119.0125 333° Northwest 216 249 18,000  Level Los Angeles Center
04:59PM 35.1158 -119.0514 334° Northwest 216 249 18,000  Level Los Angeles Center
05:02PM 35.2228 -119.1186 333° Northwest 217 250 18,000  Level Los Angeles Center
05:03PM 35.2742 -119.1517 332° Northwest 213 245 18,000  Level Los Angeles Center
05:04PM 35.3289 -119.1858 333° Northwest 218 251 18,000  Level Los Angeles Center
05:05PM 35.3917 -119.2256 333° Northwest 212 244 18,000  Level Los Angeles Center
05:06PM 35.4442 -119.2586 333° Northwest 212 244 18,000  Level Los Angeles Center
05:07PM 35.4978 -119.2911 334° Northwest 213 245 18,000  Level Los Angeles Center
05:08PM 35.5508 -119.3258 332° Northwest 215 247 18,000  Level Los Angeles Center
05:09PM 35.6031 -119.3581 333° Northwest 212 244 18,000  Level Los Angeles Center
05:10PM 35.6667 -119.3986 333° Northwest 215 247 18,000  Level Los Angeles Center
05:11PM 35.7181 -119.4311 333° Northwest 212 244 18,000  Level Los Angeles Center
05:12PM 35.7694 -119.4636 333° Northwest 209 241 18,000  Level Los Angeles Center
05:13PM 35.8217 -119.4961 333° Northwest 211 243 18,000  Level Los Angeles Center
05:14PM 35.8736 -119.5300 332° Northwest 212 244 18,000  Level Los Angeles Center
05:15PM 35.9250 -119.5633 332° Northwest 209 241 18,000  Level Los Angeles Center
05:16PM 35.9836 -119.6108 327° Northwest 212 244 18,000 -360 Level Los Angeles Center
05:17PM 36.0353 -119.6533 326° Northwest 219 252 17,300 -540 Descending Los Angeles Center
05:18PM 36.0883 -119.6975 326° Northwest 227 261 16,900 -540 Descending Los Angeles Center
05:19PM 36.1414 -119.7408 327° Northwest 230 265 16,300 -480 Descending Los Angeles Center
05:20PM 36.1939 -119.7839 327° Northwest 230 265 16,000 -180 Descending Los Angeles Center
05:21PM 36.2550 -119.8347 326° Northwest 224 258 16,000  Level Los Angeles Center
05:22PM 36.3031 -119.8761 325° Northwest 216 249 16,000  Level Los Angeles Center
05:23PM 36.3517 -119.9150 327° Northwest 213 245 16,000  Level Los Angeles Center
05:25PM 36.4081 -119.9586 328° Northwest 208 239 16,000  Level Oakland Center
05:26PM 36.4556 -119.9989 326° Northwest 207 238 16,000  Level Oakland Center
05:27PM 36.5033 -120.0389 326° Northwest 208 239 16,000  Level Oakland Center
05:28PM 36.5600 -120.0869 326° Northwest 205 236 16,000  Level Oakland Center
05:29PM 36.6078 -120.1269 326° Northwest 207 238 16,000  Level Oakland Center
05:30PM 36.6547 -120.1664 326° Northwest 205 236 16,000  Level Oakland Center
05:31PM 36.7011 -120.2100 323° Northwest 208 239 16,000  Level Oakland Center
05:32PM 36.7436 -120.2569 318° Northwest 207 238 16,000 -180 Level Oakland Center
05:33PM 36.7883 -120.3033 320° Northwest 210 242 15,700 -360 Descending Oakland Center
05:34PM 36.8378 -120.3569 319° Northwest 221 254 15,300 -420 Descending Oakland Center
05:35PM 36.8847 -120.4064 320° Northwest 223 257 14,900 -420 Descending Oakland Center
05:36PM 36.9344 -120.4600 319° Northwest 216 249 14,500 -420 Descending Oakland Center
05:37PM 36.9847 -120.5133 320° Northwest 221 254 14,100 -420 Descending Oakland Center
05:38PM 37.0336 -120.5669 319° Northwest 220 253 13,700 -420 Descending Oakland Center
05:39PM 37.0808 -120.6169 320° Northwest 224 258 13,300 -420 Descending Oakland Center
05:40PM 37.1289 -120.6683 320° Northwest 227 261 12,900 -420 Descending Oakland Center
05:41PM 37.1772 -120.7186 320° Northwest 227 261 12,500 -420 Descending Oakland Center
05:42PM 37.2244 -120.7700 319° Northwest 226 260 12,100 -300 Descending Oakland Center
05:43PM 37.2739 -120.8200 321° Northwest 227 261 12,000 -60 Descending Oakland Center
05:44PM 37.3203 -120.8681 321° Northwest 218 251 12,000 -60 Level Oakland Center
05:45PM 37.3683 -120.9208 319° Northwest 216 249 11,900 -300 Descending Oakland Center
05:46PM 37.4211 -120.9786 319° Northwest 222 255 11,500 -360 Descending Oakland Center
05:47PM 37.4603 -121.0400 309° West 223 257 11,200 -300 Descending Oakland Center
05:48PM 37.5031 -121.0989 312° West 226 260 10,900 -360 Descending Oakland Center
05:49PM 37.5500 -121.1667 311° West 227 261 10,500 -360 Descending Northern Cal TRACON
05:50PM 37.6000 -121.2333 313° West 224 258 10,200 -360 Descending Northern Cal TRACON
05:51PM 37.6333 -121.2833 310° West 216 249 9,800 -480 Descending Northern Cal TRACON
05:52PM 37.6667 -121.3333 310° West 219 252 9,300 -600 Descending Northern Cal TRACON
05:53PM 37.7167 -121.4000 313° West 225 259 8,700 -600 Descending Northern Cal TRACON
05:54PM 37.7500 -121.4667 302° West 229 264 8,200 -360 Descending Northern Cal TRACON
05:55PM 37.8000 -121.5167 322° Northwest 222 255 8,000 -180 Descending Northern Cal TRACON
05:56PM 37.8333 -121.5667 310° West 212 244 7,900 -660 Descending Northern Cal TRACON
05:58PM 37.9106 -121.6878 309° West 206 237 6,100 -660 Descending Oakland Center
05:59PM 37.9392 -121.7353 307° West 186 214 6,000 -300 Descending Oakland Center
06:00PM 37.9678 -121.7819 308° West 174 200 5,600 -660 Descending Oakland Center
06:01PM 37.9706 -121.8419 273° West 179 206 4,700 -1,080 Descending Oakland Center
06:03PM 37.9706 -121.9139 270° West 174 200 3,500 -1,020 Descending Oakland Center
06:04PM 37.9728 -121.9647 273° West 157 181 2,700 -1,020 Descending Oakland Center
06:05PM 37.9922 -122.0058 301° West 141 162 1,500 -960 Descending Oakland Center
06:06PM 38.0097 -122.0406 303° West 126 145 800 -480 Descending Oakland Center
06:07PM 37.9906 -122.0664 227° Southwest 121 139 600 -240 Descending Oakland Center